sensor_id;sensor_type;location;lat;lon;timestamp;pressure;altitude;pressure_sealevel;temperature;humidity
80509;BME280;69838;52.602;13.434;2023-12-20T00:00:29;100360.81;;;5.20;100.00
80509;BME280;69838;52.602;13.434;2023-12-20T00:01:14;100360.81;;;5.20;100.00
80509;BME280;69838;52.602;13.434;2023-12-20T00:02:00;100352.78;;;5.20;100.00
80509;BME280;69838;52.602;13.434;2023-12-20T00:02:47;100353.69;;;5.19;100.00
80509;BME280;69838;52.602;13.434;2023-12-20T00:03:33;100356.31;;;5.20;100.00
80509;BME280;69838;52.602;13.434;2023-12-20T00:04:18;100353.69;;;5.19;100.00
80509;BME280;69838;52.602;13.434;2023-12-20T00:05:05;100355.44;;;5.20;100.00
80509;BME280;69838;52.602;13.434;2023-12-20T00:05:51;100352.72;;;5.21;100.00
80509;BME280;69838;52.602;13.434;2023-12-20T00:06:36;100348.47;;;5.15;100.00
80509;BME280;69838;52.602;13.434;2023-12-20T00:07:23;100352.72;;;5.21;100.00
80509;BME280;69838;52.602;13.434;2023-12-20T00:08:08;100359.94;;;5.19;100.00
80509;BME280;69838;52.602;13.434;2023-12-20T00:08:54;100354.53;;;5.21;100.00
80509;BME280;69838;52.602;13.434;2023-12-20T00:09:40;100344.75;;;5.20;100.00
80509;BME280;69838;52.602;13.434;2023-12-20T00:10:25;100352.78;;;5.20;100.00
80509;BME280;69838;52.602;13.434;2023-12-20T00:11:12;100349.22;;;5.19;100.00
80509;BME280;69838;52.602;13.434;2023-12-20T00:11:59;100355.34;;;5.23;100.00
80509;BME280;69838;52.602;13.434;2023-12-20T00:12:44;100357.13;;;5.22;100.00
80509;BME280;69838;52.602;13.434;2023-12-20T00:13:29;100349.09;;;5.22;100.00
80509;BME280;69838;52.602;13.434;2023-12-20T00:14:16;100356.31;;;5.20;100.00
80509;BME280;69838;52.602;13.434;2023-12-20T00:15:01;100352.78;;;5.20;100.00
80509;BME280;69838;52.602;13.434;2023-12-20T00:15:47;100355.44;;;5.20;100.00
80509;BME280;69838;52.602;13.434;2023-12-20T00:16:33;100348.28;;;5.20;100.00
80509;BME280;69838;52.602;13.434;2023-12-20T00:17:18;100320.28;;;5.04;100.00
80509;BME280;69838;52.602;13.434;2023-12-20T00:18:04;100342.13;;;5.18;100.00
80509;BME280;69838;52.602;13.434;2023-12-20T00:18:51;100339.50;;;5.16;100.00
80509;BME280;69838;52.602;13.434;2023-12-20T00:19:36;100340.38;;;5.17;100.00
80509;BME280;69838;52.602;13.434;2023-12-20T00:20:22;100341.25;;;5.18;100.00
80509;BME280;69838;52.602;13.434;2023-12-20T00:21:08;100333.22;;;5.18;100.00
80509;BME280;69838;52.602;13.434;2023-12-20T00:21:54;100328.78;;;5.16;100.00
80509;BME280;69838;52.602;13.434;2023-12-20T00:22:39;100341.25;;;5.18;100.00
80509;BME280;69838;52.602;13.434;2023-12-20T00:23:25;100329.72;;;5.15;100.00
80509;BME280;69838;52.602;13.434;2023-12-20T00:24:11;100335.91;;;5.18;100.00
80509;BME280;69838;52.602;13.434;2023-12-20T00:24:56;100341.25;;;5.18;100.00
80509;BME280;69838;52.602;13.434;2023-12-20T00:25:43;100332.41;;;5.15;100.00
80509;BME280;69838;52.602;13.434;2023-12-20T00:26:29;100334.13;;;5.16;100.00
80509;BME280;69838;52.602;13.434;2023-12-20T00:27:16;100332.41;;;5.15;100.00
80509;BME280;69838;52.602;13.434;2023-12-20T00:28:01;100327.06;;;5.15;100.00
80509;BME280;69838;52.602;13.434;2023-12-20T00:28:47;100323.44;;;5.16;100.00
80509;BME280;69838;52.602;13.434;2023-12-20T00:29:33;100328.72;;;5.18;100.00
80509;BME280;69838;52.602;13.434;2023-12-20T00:30:19;100329.69;;;5.17;100.00
80509;BME280;69838;52.602;13.434;2023-12-20T00:31:04;100333.25;;;5.16;100.00
80509;BME280;69838;52.602;13.434;2023-12-20T00:31:51;100337.72;;;5.17;100.00
80509;BME280;69838;52.602;13.434;2023-12-20T00:32:36;100321.69;;;5.15;100.00
80509;BME280;69838;52.602;13.434;2023-12-20T00:33:22;100334.13;;;5.16;100.00
80509;BME280;69838;52.602;13.434;2023-12-20T00:34:08;100332.41;;;5.15;100.00
80509;BME280;69838;52.602;13.434;2023-12-20T00:34:53;100330.53;;;5.18;100.00
80509;BME280;69838;52.602;13.434;2023-12-20T00:35:40;100332.34;;;5.17;100.00
80509;BME280;69838;52.602;13.434;2023-12-20T00:36:25;100331.47;;;5.16;100.00
80509;BME280;69838;52.602;13.434;2023-12-20T00:37:11;100307.78;;;5.04;100.00
80509;BME280;69838;52.602;13.434;2023-12-20T00:37:57;100330.50;;;5.19;100.00
80509;BME280;69838;52.602;13.434;2023-12-20T00:38:43;100326.94;;;5.19;100.00
80509;BME280;69838;52.602;13.434;2023-12-20T00:39:29;100331.47;;;5.16;100.00
80509;BME280;69838;52.602;13.434;2023-12-20T00:40:15;100330.53;;;5.18;100.00
80509;BME280;69838;52.602;13.434;2023-12-20T00:41:00;100334.09;;;5.18;100.00
80509;BME280;69838;52.602;13.434;2023-12-20T00:41:49;100318.06;;;5.16;100.00
80509;BME280;69838;52.602;13.434;2023-12-20T00:42:34;100322.53;;;5.18;100.00
80509;BME280;69838;52.602;13.434;2023-12-20T00:43:20;100322.53;;;5.18;100.00
80509;BME280;69838;52.602;13.434;2023-12-20T00:44:06;100319.84;;;5.18;100.00
80509;BME280;69838;52.602;13.434;2023-12-20T00:44:52;100315.34;;;5.18;100.00
80509;BME280;69838;52.602;13.434;2023-12-20T00:45:37;100319.03;;;5.15;100.00
80509;BME280;69838;52.602;13.434;2023-12-20T00:46:24;100317.22;;;5.16;100.00
80509;BME280;69838;52.602;13.434;2023-12-20T00:47:09;100317.16;;;5.18;100.00
80509;BME280;69838;52.602;13.434;2023-12-20T00:47:55;100325.25;;;5.16;100.00
80509;BME280;69838;52.602;13.434;2023-12-20T00:48:41;100321.69;;;5.15;100.00
80509;BME280;69838;52.602;13.434;2023-12-20T00:49:27;100323.44;;;5.16;100.00
80509;BME280;69838;52.602;13.434;2023-12-20T00:50:12;100323.44;;;5.16;100.00
80509;BME280;69838;52.602;13.434;2023-12-20T00:50:59;100313.66;;;5.15;100.00
80509;BME280;69838;52.602;13.434;2023-12-20T00:51:44;100320.75;;;5.16;100.00
80509;BME280;69838;52.602;13.434;2023-12-20T00:52:29;100319.94;;;5.14;100.00
80509;BME280;69838;52.602;13.434;2023-12-20T00:53:16;100327.91;;;5.16;100.00
80509;BME280;69838;52.602;13.434;2023-12-20T00:54:01;100334.13;;;5.16;100.00
80509;BME280;69838;52.602;13.434;2023-12-20T00:54:47;100330.59;;;5.16;100.00
80509;BME280;69838;52.602;13.434;2023-12-20T00:55:34;100331.50;;;5.15;100.00
80509;BME280;69838;52.602;13.434;2023-12-20T00:56:19;100325.19;;;5.18;100.00
80509;BME280;69838;52.602;13.434;2023-12-20T00:57:06;100324.31;;;5.17;100.00
80509;BME280;69838;52.602;13.434;2023-12-20T00:57:52;100325.09;;;5.21;100.00
80509;BME280;69838;52.602;13.434;2023-12-20T00:58:38;100305.94;;;5.06;100.00
80509;BME280;69838;52.602;13.434;2023-12-20T00:59:24;100311.84;;;5.16;100.00
80509;BME280;69838;52.602;13.434;2023-12-20T01:00:11;100326.09;;;5.16;100.00
80509;BME280;69838;52.602;13.434;2023-12-20T01:00:56;100316.34;;;5.15;100.00
80509;BME280;69838;52.602;13.434;2023-12-20T01:01:43;100324.41;;;5.14;100.00
80509;BME280;69838;52.602;13.434;2023-12-20T01:02:29;100320.03;;;5.11;100.00
80509;BME280;69838;52.602;13.434;2023-12-20T01:03:15;100327.97;;;5.14;100.00
80509;BME280;69838;52.602;13.434;2023-12-20T01:04:00;100329.72;;;5.15;100.00
80509;BME280;69838;52.602;13.434;2023-12-20T01:04:46;100327.91;;;5.16;100.00
80509;BME280;69838;52.602;13.434;2023-12-20T01:05:32;100295.44;;;5.00;100.00
80509;BME280;69838;52.602;13.434;2023-12-20T01:06:17;100329.69;;;5.17;100.00
80509;BME280;69838;52.602;13.434;2023-12-20T01:07:04;100324.31;;;5.17;100.00
80509;BME280;69838;52.602;13.434;2023-12-20T01:07:49;100321.66;;;5.17;100.00
80509;BME280;69838;52.602;13.434;2023-12-20T01:08:35;100323.44;;;5.16;100.00
80509;BME280;69838;52.602;13.434;2023-12-20T01:09:21;100318.25;;;5.12;100.00
80509;BME280;69838;52.602;13.434;2023-12-20T01:10:08;100325.19;;;5.18;100.00
80509;BME280;69838;52.602;13.434;2023-12-20T01:10:54;100318.06;;;5.16;100.00
80509;BME280;69838;52.602;13.434;2023-12-20T01:11:40;100335.91;;;5.18;100.00
80509;BME280;69838;52.602;13.434;2023-12-20T01:12:27;100330.53;;;5.18;100.00
80509;BME280;69838;52.602;13.434;2023-12-20T01:13:13;100335.84;;;5.19;100.00
80509;BME280;69838;52.602;13.434;2023-12-20T01:13:59;100341.25;;;5.18;100.00
80509;BME280;69838;52.602;13.434;2023-12-20T01:14:44;100339.41;;;5.20;100.00
80509;BME280;69838;52.602;13.434;2023-12-20T01:15:30;100342.88;;;5.22;100.00
80509;BME280;69838;52.602;13.434;2023-12-20T01:16:16;100343.84;;;5.21;100.00
80509;BME280;69838;52.602;13.434;2023-12-20T01:17:01;100346.50;;;5.21;100.00
80509;BME280;69838;52.602;13.434;2023-12-20T01:17:48;100344.75;;;5.20;100.00
80509;BME280;69838;52.602;13.434;2023-12-20T01:18:34;100341.16;;;5.21;100.00
80509;BME280;69838;52.602;13.434;2023-12-20T01:19:19;100343.84;;;5.21;100.00
80509;BME280;69838;52.602;13.434;2023-12-20T01:20:07;100335.91;;;5.18;100.00
80509;BME280;69838;52.602;13.434;2023-12-20T01:20:52;100332.28;;;5.19;100.00
80509;BME280;69838;52.602;13.434;2023-12-20T01:21:38;100334.94;;;5.19;100.00
80509;BME280;69838;52.602;13.434;2023-12-20T01:22:24;100321.66;;;5.17;100.00
80509;BME280;69838;52.602;13.434;2023-12-20T01:23:10;100325.25;;;5.16;100.00
80509;BME280;69838;52.602;13.434;2023-12-20T01:23:56;100329.72;;;5.15;100.00
80509;BME280;69838;52.602;13.434;2023-12-20T01:24:41;100327.91;;;5.16;100.00
80509;BME280;69838;52.602;13.434;2023-12-20T01:25:28;100321.69;;;5.15;100.00
80509;BME280;69838;52.602;13.434;2023-12-20T01:26:14;100327.09;;;5.14;100.00
80509;BME280;69838;52.602;13.434;2023-12-20T01:27:00;100321.78;;;5.12;100.00
80509;BME280;69838;52.602;13.434;2023-12-20T01:27:46;100320.88;;;5.13;100.00
80509;BME280;69838;52.602;13.434;2023-12-20T01:28:33;100327.09;;;5.14;100.00
80509;BME280;69838;52.602;13.434;2023-12-20T01:29:18;100327.09;;;5.14;100.00
80509;BME280;69838;52.602;13.434;2023-12-20T01:30:05;100325.28;;;5.14;100.00
80509;BME280;69838;52.602;13.434;2023-12-20T01:30:51;100327.97;;;5.14;100.00
80509;BME280;69838;52.602;13.434;2023-12-20T01:31:37;100330.63;;;5.14;100.00
80509;BME280;69838;52.602;13.434;2023-12-20T01:32:23;100325.34;;;5.13;100.00
80509;BME280;69838;52.602;13.434;2023-12-20T01:33:09;100328.91;;;5.13;100.00
80509;BME280;69838;52.602;13.434;2023-12-20T01:33:55;100326.22;;;5.13;100.00
80509;BME280;69838;52.602;13.434;2023-12-20T01:34:40;100323.56;;;5.13;100.00
80509;BME280;69838;52.602;13.434;2023-12-20T01:35:26;100326.22;;;5.13;100.00
80509;BME280;69838;52.602;13.434;2023-12-20T01:36:12;100327.16;;;5.12;100.00
80509;BME280;69838;52.602;13.434;2023-12-20T01:36:58;100330.63;;;5.14;100.00
80509;BME280;69838;52.602;13.434;2023-12-20T01:37:45;100321.69;;;5.15;100.00
80509;BME280;69838;52.602;13.434;2023-12-20T01:38:30;100323.56;;;5.13;100.00
80509;BME280;69838;52.602;13.434;2023-12-20T01:39:17;100325.25;;;5.16;100.00
80509;BME280;69838;52.602;13.434;2023-12-20T01:40:04;100325.28;;;5.14;100.00
80509;BME280;69838;52.602;13.434;2023-12-20T01:40:49;100328.91;;;5.13;100.00
80509;BME280;69838;52.602;13.434;2023-12-20T01:41:36;100327.09;;;5.14;100.00
80509;BME280;69838;52.602;13.434;2023-12-20T01:42:21;100335.13;;;5.14;100.00
80509;BME280;69838;52.602;13.434;2023-12-20T01:43:10;100333.31;;;5.14;100.00
80509;BME280;69838;52.602;13.434;2023-12-20T01:43:57;100333.31;;;5.14;100.00
80509;BME280;69838;52.602;13.434;2023-12-20T01:44:42;100329.78;;;5.14;100.00
80509;BME280;69838;52.602;13.434;2023-12-20T01:45:29;100325.28;;;5.14;100.00
80509;BME280;69838;52.602;13.434;2023-12-20T01:46:15;100328.94;;;5.12;100.00
80509;BME280;69838;52.602;13.434;2023-12-20T01:47:01;100328.91;;;5.13;100.00
80509;BME280;69838;52.602;13.434;2023-12-20T01:47:47;100330.72;;;5.11;100.00
80509;BME280;69838;52.602;13.434;2023-12-20T01:48:33;100328.13;;;5.10;100.00
80509;BME280;69838;52.602;13.434;2023-12-20T01:49:18;100314.81;;;5.08;100.00
80509;BME280;69838;52.602;13.434;2023-12-20T01:50:06;100324.50;;;5.11;100.00
80509;BME280;69838;52.602;13.434;2023-12-20T01:50:53;100323.66;;;5.10;100.00
80509;BME280;69838;52.602;13.434;2023-12-20T01:51:40;100325.47;;;5.10;100.00
80509;BME280;69838;52.602;13.434;2023-12-20T01:52:26;100321.78;;;5.12;100.00
80509;BME280;69838;52.602;13.434;2023-12-20T01:53:13;100325.38;;;5.11;100.00
80509;BME280;69838;52.602;13.434;2023-12-20T01:54:00;100319.16;;;5.11;100.00
80509;BME280;69838;52.602;13.434;2023-12-20T01:54:46;100316.44;;;5.12;100.00
80509;BME280;69838;52.602;13.434;2023-12-20T01:55:34;100318.28;;;5.10;100.00
80509;BME280;69838;52.602;13.434;2023-12-20T01:56:21;100311.19;;;5.09;100.00
80509;BME280;69838;52.602;13.434;2023-12-20T01:57:06;100320.16;;;5.08;100.00
80509;BME280;69838;52.602;13.434;2023-12-20T01:57:53;100317.47;;;5.08;100.00
80509;BME280;69838;52.602;13.434;2023-12-20T01:58:44;100316.53;;;5.09;100.00
80509;BME280;69838;52.602;13.434;2023-12-20T01:59:30;100317.47;;;5.08;100.00
80509;BME280;69838;52.602;13.434;2023-12-20T02:00:16;100328.19;;;5.08;100.00
80509;BME280;69838;52.602;13.434;2023-12-20T02:01:06;100314.88;;;5.05;100.00
80509;BME280;69838;52.602;13.434;2023-12-20T02:01:51;100324.59;;;5.08;100.00
80509;BME280;69838;52.602;13.434;2023-12-20T02:02:39;100323.75;;;5.07;100.00
80509;BME280;69838;52.602;13.434;2023-12-20T02:03:25;100322.00;;;5.06;100.00
80509;BME280;69838;52.602;13.434;2023-12-20T02:04:11;100316.66;;;5.06;100.00
80509;BME280;69838;52.602;13.434;2023-12-20T02:04:56;100319.47;;;5.02;100.00
80509;BME280;69838;52.602;13.434;2023-12-20T02:05:44;100319.34;;;5.06;100.00
80509;BME280;69838;52.602;13.434;2023-12-20T02:06:30;100322.00;;;5.06;100.00
80509;BME280;69838;52.602;13.434;2023-12-20T02:07:18;100322.91;;;5.05;100.00
80509;BME280;69838;52.602;13.434;2023-12-20T02:08:03;100322.00;;;5.06;100.00
80509;BME280;69838;52.602;13.434;2023-12-20T02:08:50;100322.88;;;5.07;100.00
80509;BME280;69838;52.602;13.434;2023-12-20T02:09:38;100327.34;;;5.06;100.00
80509;BME280;69838;52.602;13.434;2023-12-20T02:10:23;100319.38;;;5.05;100.00
80509;BME280;69838;52.602;13.434;2023-12-20T02:11:10;100307.78;;;5.04;100.00
80509;BME280;69838;52.602;13.434;2023-12-20T02:11:56;100307.69;;;5.07;100.00
80509;BME280;69838;52.602;13.434;2023-12-20T02:12:42;100311.31;;;5.06;100.00
80509;BME280;69838;52.602;13.434;2023-12-20T02:13:27;100308.72;;;5.03;100.00
80509;BME280;69838;52.602;13.434;2023-12-20T02:14:15;100306.03;;;5.03;100.00
80509;BME280;69838;52.602;13.434;2023-12-20T02:15:00;100306.03;;;5.03;100.00
80509;BME280;69838;52.602;13.434;2023-12-20T02:15:46;100314.97;;;5.02;100.00
80509;BME280;69838;52.602;13.434;2023-12-20T02:16:32;100307.91;;;5.01;100.00
80509;BME280;69838;52.602;13.434;2023-12-20T02:17:18;100314.13;;;5.02;100.00
80509;BME280;69838;52.602;13.434;2023-12-20T02:18:04;100317.66;;;5.02;100.00
80509;BME280;69838;52.602;13.434;2023-12-20T02:18:51;100315.91;;;5.01;100.00
80509;BME280;69838;52.602;13.434;2023-12-20T02:19:36;100316.84;;;5.00;100.00
80509;BME280;69838;52.602;13.434;2023-12-20T02:20:21;100314.16;;;5.00;100.00
80509;BME280;69838;52.602;13.434;2023-12-20T02:21:09;100317.81;;;4.97;100.00
80509;BME280;69838;52.602;13.434;2023-12-20T02:22:06;100311.47;;;5.00;100.00
80509;BME280;69838;52.602;13.434;2023-12-20T02:22:52;100309.75;;;4.99;100.00
80509;BME280;69838;52.602;13.434;2023-12-20T02:23:38;100316.84;;;5.00;100.00
80509;BME280;69838;52.602;13.434;2023-12-20T02:24:24;100308.84;;;4.98;100.00
80509;BME280;69838;52.602;13.434;2023-12-20T02:25:09;100302.63;;;4.98;100.00
80509;BME280;69838;52.602;13.434;2023-12-20T02:25:56;100301.81;;;4.96;100.00
80509;BME280;69838;52.602;13.434;2023-12-20T02:26:41;100302.63;;;4.98;100.00
80509;BME280;69838;52.602;13.434;2023-12-20T02:27:27;100300.94;;;4.95;100.00
80509;BME280;69838;52.602;13.434;2023-12-20T02:28:15;100302.78;;;4.93;100.00
80509;BME280;69838;52.602;13.434;2023-12-20T02:29:01;100304.53;;;4.94;100.00
80509;BME280;69838;52.602;13.434;2023-12-20T02:29:47;100308.13;;;4.93;100.00
80509;BME280;69838;52.602;13.434;2023-12-20T02:30:34;100305.44;;;4.93;100.00
80509;BME280;69838;52.602;13.434;2023-12-20T02:31:20;100311.75;;;4.92;100.00
80509;BME280;69838;52.602;13.434;2023-12-20T02:32:06;100312.59;;;4.93;100.00
80509;BME280;69838;52.602;13.434;2023-12-20T02:32:52;100316.28;;;4.90;100.00
80509;BME280;69838;52.602;13.434;2023-12-20T02:33:38;100308.28;;;4.89;100.00
80509;BME280;69838;52.602;13.434;2023-12-20T02:34:27;100310.91;;;4.90;100.00
80509;BME280;69838;52.602;13.434;2023-12-20T02:35:12;100317.13;;;4.91;100.00
80509;BME280;69838;52.602;13.434;2023-12-20T02:35:58;100313.63;;;4.89;100.00
80509;BME280;69838;52.602;13.434;2023-12-20T02:36:44;100311.78;;;4.91;100.00
80509;BME280;69838;52.602;13.434;2023-12-20T02:37:32;100320.72;;;4.90;100.00
80509;BME280;69838;52.602;13.434;2023-12-20T02:38:18;100318.13;;;4.88;100.00
80509;BME280;69838;52.602;13.434;2023-12-20T02:39:04;100319.91;;;4.88;100.00
80509;BME280;69838;52.602;13.434;2023-12-20T02:39:49;100315.50;;;4.87;100.00
80509;BME280;69838;52.602;13.434;2023-12-20T02:40:35;100317.34;;;4.85;100.00
80509;BME280;69838;52.602;13.434;2023-12-20T02:41:21;100311.88;;;4.88;100.00
80509;BME280;69838;52.602;13.434;2023-12-20T02:42:07;100310.09;;;4.88;100.00
80509;BME280;69838;52.602;13.434;2023-12-20T02:42:52;100310.16;;;4.87;100.00
80509;BME280;69838;52.602;13.434;2023-12-20T02:43:38;100309.31;;;4.85;100.00
80509;BME280;69838;52.602;13.434;2023-12-20T02:44:24;100314.75;;;4.82;100.00
80509;BME280;69838;52.602;13.434;2023-12-20T02:45:09;100314.75;;;4.82;100.00
80509;BME280;69838;52.602;13.434;2023-12-20T02:45:56;100320.03;;;4.85;100.00
80509;BME280;69838;52.602;13.434;2023-12-20T02:46:41;100313.81;;;4.83;100.00
80509;BME280;69838;52.602;13.434;2023-12-20T02:47:27;100313.72;;;4.86;100.00
80509;BME280;69838;52.602;13.434;2023-12-20T02:48:14;100259.47;;;4.54;100.00
80509;BME280;69838;52.602;13.434;2023-12-20T02:49:00;100316.63;;;4.80;100.00
80509;BME280;69838;52.602;13.434;2023-12-20T02:49:45;100279.66;;;4.64;100.00
80509;BME280;69838;52.602;13.434;2023-12-20T02:50:32;100305.09;;;4.77;100.00
80509;BME280;69838;52.602;13.434;2023-12-20T02:51:17;100317.53;;;4.78;100.00
80509;BME280;69838;52.602;13.434;2023-12-20T02:52:03;100314.03;;;4.76;100.00
80509;BME280;69838;52.602;13.434;2023-12-20T02:52:51;100316.69;;;4.76;100.00
80509;BME280;69838;52.602;13.434;2023-12-20T02:53:36;100322.09;;;4.75;100.00
80509;BME280;69838;52.602;13.434;2023-12-20T02:54:23;100314.88;;;4.77;100.00
80509;BME280;69838;52.602;13.434;2023-12-20T02:55:08;100315.91;;;4.73;100.00
80509;BME280;69838;52.602;13.434;2023-12-20T02:55:53;100318.56;;;4.74;100.00
80509;BME280;69838;52.602;13.434;2023-12-20T02:56:40;100298.28;;;4.67;100.00
80509;BME280;69838;52.602;13.434;2023-12-20T02:57:25;100310.53;;;4.74;100.00
80509;BME280;69838;52.602;13.434;2023-12-20T02:58:11;100305.97;;;4.78;100.00
80509;BME280;69838;52.602;13.434;2023-12-20T02:58:57;100303.41;;;4.73;100.00
80509;BME280;69838;52.602;13.434;2023-12-20T02:59:42;100322.88;;;4.78;100.00
80509;BME280;69838;52.602;13.434;2023-12-20T03:00:29;100319.28;;;4.80;100.00
80509;BME280;69838;52.602;13.434;2023-12-20T03:01:14;100322.00;;;4.78;100.00
80509;BME280;69838;52.602;13.434;2023-12-20T03:02:00;100317.59;;;4.75;100.00
80509;BME280;69838;52.602;13.434;2023-12-20T03:02:46;100315.88;;;4.74;100.00
80509;BME280;69838;52.602;13.434;2023-12-20T03:03:31;100320.38;;;4.74;100.00
80509;BME280;69838;52.602;13.434;2023-12-20T03:04:17;100320.38;;;4.74;100.00
80509;BME280;69838;52.602;13.434;2023-12-20T03:05:04;100319.41;;;4.75;100.00
80509;BME280;69838;52.602;13.434;2023-12-20T03:05:49;100318.56;;;4.74;100.00
80509;BME280;69838;52.602;13.434;2023-12-20T03:06:36;100320.28;;;4.75;100.00
80509;BME280;69838;52.602;13.434;2023-12-20T03:07:21;100319.38;;;4.76;100.00
80509;BME280;69838;52.602;13.434;2023-12-20T03:08:08;100316.75;;;4.75;100.00
80509;BME280;69838;52.602;13.434;2023-12-20T03:08:55;100313.25;;;4.73;100.00
80509;BME280;69838;52.602;13.434;2023-12-20T03:09:41;100318.59;;;4.73;100.00
80509;BME280;69838;52.602;13.434;2023-12-20T03:10:26;100315.97;;;4.71;100.00
80509;BME280;69838;52.602;13.434;2023-12-20T03:11:12;100315.97;;;4.71;100.00
80509;BME280;69838;52.602;13.434;2023-12-20T03:11:58;100319.66;;;4.67;100.00
80509;BME280;69838;52.602;13.434;2023-12-20T03:12:44;100321.41;;;4.68;100.00
80509;BME280;69838;52.602;13.434;2023-12-20T03:13:30;100314.31;;;4.67;100.00
80509;BME280;69838;52.602;13.434;2023-12-20T03:14:15;100315.19;;;4.68;100.00
80509;BME280;69838;52.602;13.434;2023-12-20T03:15:01;100303.72;;;4.64;100.00
80509;BME280;69838;52.602;13.434;2023-12-20T03:15:47;100310.81;;;4.65;100.00
80509;BME280;69838;52.602;13.434;2023-12-20T03:16:32;100311.81;;;4.61;100.00
80509;BME280;69838;52.602;13.434;2023-12-20T03:17:18;100314.59;;;4.58;100.00
80509;BME280;69838;52.602;13.434;2023-12-20T03:18:05;100316.47;;;4.56;100.00
80509;BME280;69838;52.602;13.434;2023-12-20T03:18:51;100316.53;;;4.53;100.00
80509;BME280;69838;52.602;13.434;2023-12-20T03:19:36;100318.41;;;4.51;100.00
80509;BME280;69838;52.602;13.434;2023-12-20T03:20:23;100320.25;;;4.49;100.00
80509;BME280;69838;52.602;13.434;2023-12-20T03:21:09;100316.72;;;4.47;100.00
80509;BME280;69838;52.602;13.434;2023-12-20T03:21:54;100314.00;;;4.48;100.00
80509;BME280;69838;52.602;13.434;2023-12-20T03:22:40;100320.28;;;4.47;100.00
80509;BME280;69838;52.602;13.434;2023-12-20T03:23:27;100318.56;;;4.45;100.00
80509;BME280;69838;52.602;13.434;2023-12-20T03:24:12;100324.03;;;4.42;100.00
80509;BME280;69838;52.602;13.434;2023-12-20T03:24:59;100332.94;;;4.40;100.00
80509;BME280;69838;52.602;13.434;2023-12-20T03:25:44;100333.81;;;4.41;100.00
80509;BME280;69838;52.602;13.434;2023-12-20T03:26:30;100331.19;;;4.39;100.00
80509;BME280;69838;52.602;13.434;2023-12-20T03:27:16;100328.47;;;4.41;100.00
80509;BME280;69838;52.602;13.434;2023-12-20T03:28:01;100325.75;;;4.43;100.00
80509;BME280;69838;52.602;13.434;2023-12-20T03:28:47;100329.28;;;4.43;100.00
80509;BME280;69838;52.602;13.434;2023-12-20T03:29:33;100326.56;;;4.45;100.00
80509;BME280;69838;52.602;13.434;2023-12-20T03:30:19;100318.69;;;4.42;100.00
80509;BME280;69838;52.602;13.434;2023-12-20T03:31:05;100319.63;;;4.39;100.00
80509;BME280;69838;52.602;13.434;2023-12-20T03:31:51;100325.00;;;4.37;100.00
80509;BME280;69838;52.602;13.434;2023-12-20T03:32:37;100316.22;;;4.34;100.00
80509;BME280;69838;52.602;13.434;2023-12-20T03:33:23;100318.00;;;4.33;100.00
80509;BME280;69838;52.602;13.434;2023-12-20T03:34:09;100322.44;;;4.34;100.00
80509;BME280;69838;52.602;13.434;2023-12-20T03:34:54;100320.66;;;4.35;100.00
80509;BME280;69838;52.602;13.434;2023-12-20T03:35:41;100316.09;;;4.38;100.00
80509;BME280;69838;52.602;13.434;2023-12-20T03:36:26;100323.28;;;4.36;100.00
80509;BME280;69838;52.602;13.434;2023-12-20T03:37:12;100327.81;;;4.34;100.00
80509;BME280;69838;52.602;13.434;2023-12-20T03:37:58;100323.47;;;4.29;100.00
80509;BME280;69838;52.602;13.434;2023-12-20T03:38:46;100324.28;;;4.32;100.00
80509;BME280;69838;52.602;13.434;2023-12-20T03:39:32;100324.38;;;4.29;100.00
80509;BME280;69838;52.602;13.434;2023-12-20T03:40:18;100328.91;;;4.27;100.00
80509;BME280;69838;52.602;13.434;2023-12-20T03:41:04;100327.13;;;4.26;100.00
80509;BME280;69838;52.602;13.434;2023-12-20T03:41:49;100326.31;;;4.24;100.00
80509;BME280;69838;52.602;13.434;2023-12-20T03:42:34;100319.19;;;4.23;100.00
80509;BME280;69838;52.602;13.434;2023-12-20T03:43:21;100323.69;;;4.23;100.00
80509;BME280;69838;52.602;13.434;2023-12-20T03:44:06;100322.03;;;4.18;100.00
80509;BME280;69838;52.602;13.434;2023-12-20T03:44:52;100318.44;;;4.18;100.00
80509;BME280;69838;52.602;13.434;2023-12-20T03:45:38;100320.25;;;4.17;100.00
80509;BME280;69838;52.602;13.434;2023-12-20T03:46:23;100317.53;;;4.19;100.00
80509;BME280;69838;52.602;13.434;2023-12-20T03:47:10;100313.19;;;4.16;100.00
80509;BME280;69838;52.602;13.434;2023-12-20T03:47:55;100312.41;;;4.13;100.00
80509;BME280;69838;52.602;13.434;2023-12-20T03:48:41;100304.47;;;4.10;100.00
80509;BME280;69838;52.602;13.434;2023-12-20T03:49:28;100309.84;;;4.08;100.00
80509;BME280;69838;52.602;13.434;2023-12-20T03:50:13;100307.25;;;4.05;100.00
80509;BME280;69838;52.602;13.434;2023-12-20T03:50:58;100301.88;;;4.07;100.00
80509;BME280;69838;52.602;13.434;2023-12-20T03:51:45;100300.97;;;4.08;100.00
80509;BME280;69838;52.602;13.434;2023-12-20T03:52:30;100311.50;;;4.12;100.00
80509;BME280;69838;52.602;13.434;2023-12-20T03:53:16;100313.25;;;4.13;100.00
80509;BME280;69838;52.602;13.434;2023-12-20T03:54:03;100305.94;;;4.20;100.00
80509;BME280;69838;52.602;13.434;2023-12-20T03:54:49;100314.75;;;4.24;100.00
80509;BME280;69838;52.602;13.434;2023-12-20T03:55:34;100312.88;;;4.27;100.00
80509;BME280;69838;52.602;13.434;2023-12-20T03:56:20;100312.00;;;4.25;100.00
80509;BME280;69838;52.602;13.434;2023-12-20T03:57:06;100305.78;;;4.25;100.00
80509;BME280;69838;52.602;13.434;2023-12-20T03:57:51;100318.28;;;4.24;100.00